sensor_id;sensor_type;location;lat;lon;timestamp;P1;durP1;ratioP1;P2;durP2;ratioP2
29006;SDS011;16104;48.642;9.008;2023-09-18T01:02:16;4.78;;;2.70;;
29006;SDS011;16104;48.642;9.008;2023-09-18T01:07:12;5.78;;;2.80;;
29006;SDS011;16104;48.642;9.008;2023-09-18T01:12:10;3.58;;;2.58;;
29006;SDS011;16104;48.642;9.008;2023-09-18T02:03:09;7.93;;;1.98;;
29006;SDS011;16104;48.642;9.008;2023-09-18T02:08:05;6.22;;;1.88;;
29006;SDS011;16104;48.642;9.008;2023-09-18T02:13:00;7.43;;;1.95;;
29006;SDS011;16104;48.642;9.008;2023-09-18T03:03:44;5.63;;;1.63;;
29006;SDS011;16104;48.642;9.008;2023-09-18T03:08:41;9.50;;;2.30;;
29006;SDS011;16104;48.642;9.008;2023-09-18T03:18:34;5.55;;;2.13;;
29006;SDS011;16104;48.642;9.008;2023-09-18T03:23:30;5.43;;;1.98;;
29006;SDS011;16104;48.642;9.008;2023-09-18T03:28:25;10.60;;;2.00;;
29006;SDS011;16104;48.642;9.008;2023-09-18T03:33:21;8.90;;;2.38;;
29006;SDS011;16104;48.642;9.008;2023-09-18T03:38:17;10.10;;;1.85;;
29006;SDS011;16104;48.642;9.008;2023-09-18T03:43:13;11.65;;;1.95;;
29006;SDS011;16104;48.642;9.008;2023-09-18T03:48:08;8.20;;;2.10;;
29006;SDS011;16104;48.642;9.008;2023-09-18T03:53:04;8.43;;;2.05;;
29006;SDS011;16104;48.642;9.008;2023-09-18T03:58:00;8.52;;;2.17;;
29006;SDS011;16104;48.642;9.008;2023-09-18T04:02:56;6.20;;;2.42;;
29006;SDS011;16104;48.642;9.008;2023-09-18T04:07:51;11.15;;;2.83;;
29006;SDS011;16104;48.642;9.008;2023-09-18T04:12:47;8.82;;;2.20;;
29006;SDS011;16104;48.642;9.008;2023-09-18T04:17:45;10.02;;;2.30;;
29006;SDS011;16104;48.642;9.008;2023-09-18T04:22:45;5.32;;;1.98;;
29006;SDS011;16104;48.642;9.008;2023-09-18T04:27:45;9.05;;;2.00;;
29006;SDS011;16104;48.642;9.008;2023-09-18T04:32:40;6.07;;;2.05;;
29006;SDS011;16104;48.642;9.008;2023-09-18T04:37:36;4.22;;;1.85;;
29006;SDS011;16104;48.642;9.008;2023-09-18T04:42:32;8.40;;;2.35;;
29006;SDS011;16104;48.642;9.008;2023-09-18T04:47:28;7.57;;;1.73;;
29006;SDS011;16104;48.642;9.008;2023-09-18T04:52:23;5.75;;;1.70;;
29006;SDS011;16104;48.642;9.008;2023-09-18T04:57:19;6.97;;;2.03;;
29006;SDS011;16104;48.642;9.008;2023-09-18T05:02:15;4.63;;;1.48;;
29006;SDS011;16104;48.642;9.008;2023-09-18T05:07:11;7.80;;;1.58;;
29006;SDS011;16104;48.642;9.008;2023-09-18T05:12:08;7.03;;;1.50;;
29006;SDS011;16104;48.642;9.008;2023-09-18T05:17:13;3.85;;;1.48;;
29006;SDS011;16104;48.642;9.008;2023-09-18T05:22:10;4.25;;;1.42;;
29006;SDS011;16104;48.642;9.008;2023-09-18T05:27:06;3.47;;;1.52;;
29006;SDS011;16104;48.642;9.008;2023-09-18T05:32:02;10.57;;;1.95;;
29006;SDS011;16104;48.642;9.008;2023-09-18T05:36:58;6.63;;;2.08;;
29006;SDS011;16104;48.642;9.008;2023-09-18T05:41:54;3.78;;;1.52;;
29006;SDS011;16104;48.642;9.008;2023-09-18T05:46:49;4.97;;;1.90;;
29006;SDS011;16104;48.642;9.008;2023-09-18T05:51:45;5.88;;;1.95;;
29006;SDS011;16104;48.642;9.008;2023-09-18T05:56:43;5.35;;;1.67;;
29006;SDS011;16104;48.642;9.008;2023-09-18T06:01:39;6.65;;;1.70;;
29006;SDS011;16104;48.642;9.008;2023-09-18T06:06:34;7.93;;;2.17;;
29006;SDS011;16104;48.642;9.008;2023-09-18T06:11:30;8.07;;;2.13;;
29006;SDS011;16104;48.642;9.008;2023-09-18T06:16:25;6.75;;;1.73;;
29006;SDS011;16104;48.642;9.008;2023-09-18T06:21:21;9.75;;;2.08;;
29006;SDS011;16104;48.642;9.008;2023-09-18T06:26:16;6.53;;;2.25;;
29006;SDS011;16104;48.642;9.008;2023-09-18T06:31:13;5.90;;;1.77;;
29006;SDS011;16104;48.642;9.008;2023-09-18T06:36:09;4.60;;;1.90;;
29006;SDS011;16104;48.642;9.008;2023-09-18T06:41:04;8.73;;;2.15;;
29006;SDS011;16104;48.642;9.008;2023-09-18T06:46:00;6.20;;;1.92;;
29006;SDS011;16104;48.642;9.008;2023-09-18T06:50:55;4.80;;;1.77;;
29006;SDS011;16104;48.642;9.008;2023-09-18T06:55:51;6.43;;;2.05;;
29006;SDS011;16104;48.642;9.008;2023-09-18T07:00:47;6.47;;;1.70;;
29006;SDS011;16104;48.642;9.008;2023-09-18T07:05:45;5.17;;;1.60;;
29006;SDS011;16104;48.642;9.008;2023-09-18T07:10:41;8.00;;;1.73;;
29006;SDS011;16104;48.642;9.008;2023-09-18T07:15:37;4.47;;;1.67;;
29006;SDS011;16104;48.642;9.008;2023-09-18T07:20:33;5.47;;;1.40;;
29006;SDS011;16104;48.642;9.008;2023-09-18T07:25:28;4.22;;;1.27;;
29006;SDS011;16104;48.642;9.008;2023-09-18T07:30:24;3.97;;;1.38;;
29006;SDS011;16104;48.642;9.008;2023-09-18T07:35:22;4.72;;;1.30;;
29006;SDS011;16104;48.642;9.008;2023-09-18T07:40:17;5.25;;;1.13;;
29006;SDS011;16104;48.642;9.008;2023-09-18T07:45:13;3.95;;;1.23;;
29006;SDS011;16104;48.642;9.008;2023-09-18T07:50:08;6.43;;;1.25;;
29006;SDS011;16104;48.642;9.008;2023-09-18T07:55:04;4.10;;;1.27;;
29006;SDS011;16104;48.642;9.008;2023-09-18T08:00:00;2.78;;;1.20;;
29006;SDS011;16104;48.642;9.008;2023-09-18T08:05:06;3.95;;;1.08;;
29006;SDS011;16104;48.642;9.008;2023-09-18T08:10:03;3.25;;;1.08;;
29006;SDS011;16104;48.642;9.008;2023-09-18T08:15:03;5.45;;;1.58;;
29006;SDS011;16104;48.642;9.008;2023-09-18T08:20:01;5.55;;;1.15;;
29006;SDS011;16104;48.642;9.008;2023-09-18T08:24:56;7.68;;;1.17;;
29006;SDS011;16104;48.642;9.008;2023-09-18T08:29:52;2.03;;;1.10;;
29006;SDS011;16104;48.642;9.008;2023-09-18T08:34:47;3.85;;;1.00;;
29006;SDS011;16104;48.642;9.008;2023-09-18T08:39:43;3.10;;;0.80;;
29006;SDS011;16104;48.642;9.008;2023-09-18T08:44:38;4.63;;;1.08;;
29006;SDS011;16104;48.642;9.008;2023-09-18T08:49:36;2.17;;;1.00;;
29006;SDS011;16104;48.642;9.008;2023-09-18T08:54:33;2.40;;;1.10;;
29006;SDS011;16104;48.642;9.008;2023-09-18T08:59:29;2.08;;;1.10;;
29006;SDS011;16104;48.642;9.008;2023-09-18T09:04:26;2.78;;;1.05;;
29006;SDS011;16104;48.642;9.008;2023-09-18T09:09:21;4.82;;;1.35;;
29006;SDS011;16104;48.642;9.008;2023-09-18T09:14:18;4.60;;;1.30;;
29006;SDS011;16104;48.642;9.008;2023-09-18T09:19:17;1.63;;;0.90;;
29006;SDS011;16104;48.642;9.008;2023-09-18T09:24:13;3.70;;;1.10;;
29006;SDS011;16104;48.642;9.008;2023-09-18T09:29:18;4.72;;;1.50;;
29006;SDS011;16104;48.642;9.008;2023-09-18T09:34:24;3.60;;;1.20;;
29006;SDS011;16104;48.642;9.008;2023-09-18T09:39:23;6.28;;;1.17;;
29006;SDS011;16104;48.642;9.008;2023-09-18T09:44:21;3.78;;;1.30;;
29006;SDS011;16104;48.642;9.008;2023-09-18T09:49:16;3.05;;;1.05;;
29006;SDS011;16104;48.642;9.008;2023-09-18T09:54:14;3.65;;;1.42;;
29006;SDS011;16104;48.642;9.008;2023-09-18T09:59:29;5.63;;;1.35;;
29006;SDS011;16104;48.642;9.008;2023-09-18T10:04:28;5.07;;;1.20;;
29006;SDS011;16104;48.642;9.008;2023-09-18T10:09:26;4.25;;;1.30;;
29006;SDS011;16104;48.642;9.008;2023-09-18T10:14:31;7.00;;;1.48;;
29006;SDS011;16104;48.642;9.008;2023-09-18T10:24:33;3.85;;;1.65;;
29006;SDS011;16104;48.642;9.008;2023-09-18T10:29:35;4.00;;;1.15;;
29006;SDS011;16104;48.642;9.008;2023-09-18T10:34:31;8.38;;;1.20;;
29006;SDS011;16104;48.642;9.008;2023-09-18T10:39:28;2.97;;;1.20;;
29006;SDS011;16104;48.642;9.008;2023-09-18T10:44:25;3.33;;;1.67;;
29006;SDS011;16104;48.642;9.008;2023-09-18T10:49:22;2.75;;;1.23;;
29006;SDS011;16104;48.642;9.008;2023-09-18T10:54:25;3.22;;;1.10;;
29006;SDS011;16104;48.642;9.008;2023-09-18T10:59:22;3.28;;;1.10;;
29006;SDS011;16104;48.642;9.008;2023-09-18T11:04:20;2.65;;;1.10;;
29006;SDS011;16104;48.642;9.008;2023-09-18T11:09:19;3.45;;;1.05;;
29006;SDS011;16104;48.642;9.008;2023-09-18T11:14:19;2.80;;;1.10;;
29006;SDS011;16104;48.642;9.008;2023-09-18T11:19:17;2.35;;;1.02;;
29006;SDS011;16104;48.642;9.008;2023-09-18T11:24:16;2.58;;;1.10;;
29006;SDS011;16104;48.642;9.008;2023-09-18T11:29:14;5.13;;;1.00;;
29006;SDS011;16104;48.642;9.008;2023-09-18T11:34:13;2.15;;;0.85;;
29006;SDS011;16104;48.642;9.008;2023-09-18T11:39:34;4.82;;;1.10;;
29006;SDS011;16104;48.642;9.008;2023-09-18T11:44:40;2.65;;;0.90;;
29006;SDS011;16104;48.642;9.008;2023-09-18T11:49:36;2.70;;;0.80;;
29006;SDS011;16104;48.642;9.008;2023-09-18T11:54:36;1.85;;;0.82;;
29006;SDS011;16104;48.642;9.008;2023-09-18T11:59:36;3.92;;;1.10;;
29006;SDS011;16104;48.642;9.008;2023-09-18T12:04:33;1.47;;;0.97;;
29006;SDS011;16104;48.642;9.008;2023-09-18T12:09:33;4.68;;;1.20;;
29006;SDS011;16104;48.642;9.008;2023-09-18T12:19:28;1.92;;;1.00;;
29006;SDS011;16104;48.642;9.008;2023-09-18T12:24:24;1.75;;;1.00;;
29006;SDS011;16104;48.642;9.008;2023-09-18T12:29:20;2.13;;;1.10;;
29006;SDS011;16104;48.642;9.008;2023-09-18T12:34:20;1.85;;;0.90;;
29006;SDS011;16104;48.642;9.008;2023-09-18T12:39:17;1.33;;;0.90;;
29006;SDS011;16104;48.642;9.008;2023-09-18T12:44:15;2.08;;;1.10;;
29006;SDS011;16104;48.642;9.008;2023-09-18T12:49:18;1.05;;;0.80;;
29006;SDS011;16104;48.642;9.008;2023-09-18T12:54:15;2.60;;;1.10;;
29006;SDS011;16104;48.642;9.008;2023-09-18T12:59:11;3.05;;;0.98;;
29006;SDS011;16104;48.642;9.008;2023-09-18T13:04:11;1.67;;;0.80;;
29006;SDS011;16104;48.642;9.008;2023-09-18T13:14:12;2.42;;;1.00;;
29006;SDS011;16104;48.642;9.008;2023-09-18T13:19:07;13.82;;;1.52;;
29006;SDS011;16104;48.642;9.008;2023-09-18T13:24:06;1.75;;;1.10;;
29006;SDS011;16104;48.642;9.008;2023-09-18T13:29:01;2.80;;;0.80;;
29006;SDS011;16104;48.642;9.008;2023-09-18T13:33:57;2.97;;;0.98;;
29006;SDS011;16104;48.642;9.008;2023-09-18T13:38:53;1.10;;;0.88;;
29006;SDS011;16104;48.642;9.008;2023-09-18T13:43:49;1.77;;;0.90;;
29006;SDS011;16104;48.642;9.008;2023-09-18T13:48:50;2.63;;;1.05;;
29006;SDS011;16104;48.642;9.008;2023-09-18T13:53:46;1.70;;;0.80;;
29006;SDS011;16104;48.642;9.008;2023-09-18T13:58:43;1.98;;;0.90;;
29006;SDS011;16104;48.642;9.008;2023-09-18T14:03:38;3.22;;;1.23;;
29006;SDS011;16104;48.642;9.008;2023-09-18T14:08:36;2.60;;;1.08;;
29006;SDS011;16104;48.642;9.008;2023-09-18T14:13:34;1.65;;;0.90;;
29006;SDS011;16104;48.642;9.008;2023-09-18T14:18:30;2.53;;;1.00;;
29006;SDS011;16104;48.642;9.008;2023-09-18T14:23:25;2.90;;;0.95;;
29006;SDS011;16104;48.642;9.008;2023-09-18T14:28:22;2.42;;;1.20;;
29006;SDS011;16104;48.642;9.008;2023-09-18T14:33:17;1.08;;;0.88;;
29006;SDS011;16104;48.642;9.008;2023-09-18T14:38:12;1.67;;;0.60;;
29006;SDS011;16104;48.642;9.008;2023-09-18T14:43:09;1.70;;;0.98;;
29006;SDS011;16104;48.642;9.008;2023-09-18T14:48:06;2.95;;;1.25;;
29006;SDS011;16104;48.642;9.008;2023-09-18T14:53:02;1.35;;;0.60;;
29006;SDS011;16104;48.642;9.008;2023-09-18T14:57:58;1.70;;;0.80;;
29006;SDS011;16104;48.642;9.008;2023-09-18T15:02:54;2.03;;;0.90;;
29006;SDS011;16104;48.642;9.008;2023-09-18T15:07:50;3.75;;;1.27;;
29006;SDS011;16104;48.642;9.008;2023-09-18T15:12:45;2.92;;;1.00;;
29006;SDS011;16104;48.642;9.008;2023-09-18T15:17:41;1.88;;;0.90;;
29006;SDS011;16104;48.642;9.008;2023-09-18T15:22:37;3.25;;;0.90;;
29006;SDS011;16104;48.642;9.008;2023-09-18T15:27:32;3.60;;;0.80;;
29006;SDS011;16104;48.642;9.008;2023-09-18T15:32:28;3.42;;;0.90;;
29006;SDS011;16104;48.642;9.008;2023-09-18T15:37:24;2.78;;;1.05;;
29006;SDS011;16104;48.642;9.008;2023-09-18T15:42:19;1.30;;;0.82;;
29006;SDS011;16104;48.642;9.008;2023-09-18T15:47:15;1.45;;;0.90;;
29006;SDS011;16104;48.642;9.008;2023-09-18T15:52:10;1.55;;;0.93;;
29006;SDS011;16104;48.642;9.008;2023-09-18T15:57:06;1.55;;;0.68;;
29006;SDS011;16104;48.642;9.008;2023-09-18T16:02:01;2.90;;;0.70;;
29006;SDS011;16104;48.642;9.008;2023-09-18T16:06:57;2.13;;;1.17;;
29006;SDS011;16104;48.642;9.008;2023-09-18T16:11:52;1.38;;;0.90;;
29006;SDS011;16104;48.642;9.008;2023-09-18T16:16:48;2.47;;;0.90;;
29006;SDS011;16104;48.642;9.008;2023-09-18T16:21:44;1.63;;;0.93;;
29006;SDS011;16104;48.642;9.008;2023-09-18T16:26:39;3.58;;;1.20;;
29006;SDS011;16104;48.642;9.008;2023-09-18T16:31:35;3.85;;;1.10;;
29006;SDS011;16104;48.642;9.008;2023-09-18T16:36:30;1.70;;;1.00;;
29006;SDS011;16104;48.642;9.008;2023-09-18T16:41:27;1.55;;;0.90;;
29006;SDS011;16104;48.642;9.008;2023-09-18T16:46:23;2.70;;;1.00;;
29006;SDS011;16104;48.642;9.008;2023-09-18T16:51:18;3.03;;;1.10;;
29006;SDS011;16104;48.642;9.008;2023-09-18T16:56:14;1.95;;;1.17;;
29006;SDS011;16104;48.642;9.008;2023-09-18T17:01:10;1.38;;;0.90;;
29006;SDS011;16104;48.642;9.008;2023-09-18T17:06:06;2.67;;;1.10;;
29006;SDS011;16104;48.642;9.008;2023-09-18T17:11:01;2.40;;;0.90;;
29006;SDS011;16104;48.642;9.008;2023-09-18T17:16:00;4.07;;;0.90;;
29006;SDS011;16104;48.642;9.008;2023-09-18T17:20:55;3.38;;;1.00;;
29006;SDS011;16104;48.642;9.008;2023-09-18T17:25:52;1.05;;;0.90;;
29006;SDS011;16104;48.642;9.008;2023-09-18T17:30:48;2.55;;;1.00;;
29006;SDS011;16104;48.642;9.008;2023-09-18T17:35:46;2.47;;;1.40;;
29006;SDS011;16104;48.642;9.008;2023-09-18T17:40:43;1.92;;;1.17;;
29006;SDS011;16104;48.642;9.008;2023-09-18T17:45:39;2.65;;;1.30;;
29006;SDS011;16104;48.642;9.008;2023-09-18T17:50:34;2.17;;;1.08;;
29006;SDS011;16104;48.642;9.008;2023-09-18T17:55:30;2.97;;;1.10;;
29006;SDS011;16104;48.642;9.008;2023-09-18T18:00:25;1.55;;;0.80;;
29006;SDS011;16104;48.642;9.008;2023-09-18T18:05:22;1.05;;;0.93;;
29006;SDS011;16104;48.642;9.008;2023-09-18T18:10:19;2.05;;;1.10;;
29006;SDS011;16104;48.642;9.008;2023-09-18T18:15:14;2.22;;;1.23;;
29006;SDS011;16104;48.642;9.008;2023-09-18T18:20:10;1.45;;;0.90;;
29006;SDS011;16104;48.642;9.008;2023-09-18T18:25:07;2.28;;;1.20;;
29006;SDS011;16104;48.642;9.008;2023-09-18T18:30:03;3.33;;;1.20;;
29006;SDS011;16104;48.642;9.008;2023-09-18T18:34:59;3.78;;;1.30;;
29006;SDS011;16104;48.642;9.008;2023-09-18T18:39:55;2.47;;;1.10;;
29006;SDS011;16104;48.642;9.008;2023-09-18T18:44:50;4.70;;;1.30;;
29006;SDS011;16104;48.642;9.008;2023-09-18T18:49:48;3.30;;;1.55;;
29006;SDS011;16104;48.642;9.008;2023-09-18T18:54:43;5.35;;;1.73;;
29006;SDS011;16104;48.642;9.008;2023-09-18T18:59:39;2.83;;;1.20;;
29006;SDS011;16104;48.642;9.008;2023-09-18T19:04:36;4.65;;;1.13;;
29006;SDS011;16104;48.642;9.008;2023-09-18T19:09:32;1.20;;;0.60;;
29006;SDS011;16104;48.642;9.008;2023-09-18T19:14:29;1.95;;;0.80;;
29006;SDS011;16104;48.642;9.008;2023-09-18T19:19:24;2.90;;;1.08;;
29006;SDS011;16104;48.642;9.008;2023-09-18T19:24:20;2.78;;;1.08;;
29006;SDS011;16104;48.642;9.008;2023-09-18T19:29:15;1.73;;;0.70;;
29006;SDS011;16104;48.642;9.008;2023-09-18T19:34:11;1.27;;;0.70;;
29006;SDS011;16104;48.642;9.008;2023-09-18T19:39:10;1.43;;;0.70;;
29006;SDS011;16104;48.642;9.008;2023-09-18T19:44:06;2.65;;;0.63;;
29006;SDS011;16104;48.642;9.008;2023-09-18T19:49:02;2.05;;;0.50;;
29006;SDS011;16104;48.642;9.008;2023-09-18T19:53:59;1.50;;;0.50;;
29006;SDS011;16104;48.642;9.008;2023-09-18T19:58:55;0.98;;;0.50;;
29006;SDS011;16104;48.642;9.008;2023-09-18T20:03:50;1.35;;;0.60;;
29006;SDS011;16104;48.642;9.008;2023-09-18T20:08:46;1.27;;;0.60;;
29006;SDS011;16104;48.642;9.008;2023-09-18T20:13:41;0.70;;;0.50;;
29006;SDS011;16104;48.642;9.008;2023-09-18T20:18:37;0.95;;;0.47;;
29006;SDS011;16104;48.642;9.008;2023-09-18T20:23:32;1.33;;;0.70;;
29006;SDS011;16104;48.642;9.008;2023-09-18T20:28:28;0.85;;;0.50;;
29006;SDS011;16104;48.642;9.008;2023-09-18T20:33:23;1.13;;;0.63;;
29006;SDS011;16104;48.642;9.008;2023-09-18T20:38:19;1.75;;;0.50;;
29006;SDS011;16104;48.642;9.008;2023-09-18T20:43:15;1.02;;;0.52;;
29006;SDS011;16104;48.642;9.008;2023-09-18T20:48:11;1.52;;;0.77;;
29006;SDS011;16104;48.642;9.008;2023-09-18T20:53:06;1.40;;;0.65;;
29006;SDS011;16104;48.642;9.008;2023-09-18T20:58:03;0.63;;;0.55;;
29006;SDS011;16104;48.642;9.008;2023-09-18T21:02:59;0.60;;;0.50;;
29006;SDS011;16104;48.642;9.008;2023-09-18T21:07:54;4.32;;;0.75;;
29006;SDS011;16104;48.642;9.008;2023-09-18T21:12:50;0.82;;;0.47;;
29006;SDS011;16104;48.642;9.008;2023-09-18T21:17:46;1.17;;;0.50;;
29006;SDS011;16104;48.642;9.008;2023-09-18T21:22:42;0.80;;;0.40;;
29006;SDS011;16104;48.642;9.008;2023-09-18T21:27:37;1.40;;;0.68;;
29006;SDS011;16104;48.642;9.008;2023-09-18T21:32:33;1.40;;;0.63;;
29006;SDS011;16104;48.642;9.008;2023-09-18T21:37:29;1.45;;;0.60;;
29006;SDS011;16104;48.642;9.008;2023-09-18T21:42:24;0.85;;;0.60;;
29006;SDS011;16104;48.642;9.008;2023-09-18T21:47:20;1.65;;;0.70;;
29006;SDS011;16104;48.642;9.008;2023-09-18T21:52:15;2.95;;;0.90;;
29006;SDS011;16104;48.642;9.008;2023-09-18T21:57:12;2.20;;;0.60;;
29006;SDS011;16104;48.642;9.008;2023-09-18T22:02:09;2.03;;;0.52;;
29006;SDS011;16104;48.642;9.008;2023-09-18T22:07:04;1.42;;;0.70;;
29006;SDS011;16104;48.642;9.008;2023-09-18T22:12:00;2.65;;;0.70;;
29006;SDS011;16104;48.642;9.008;2023-09-18T22:16:58;1.33;;;0.55;;
29006;SDS011;16104;48.642;9.008;2023-09-18T22:21:53;0.80;;;0.63;;
29006;SDS011;16104;48.642;9.008;2023-09-18T22:26:49;0.95;;;0.60;;
29006;SDS011;16104;48.642;9.008;2023-09-18T22:31:44;1.35;;;0.75;;
29006;SDS011;16104;48.642;9.008;2023-09-18T22:36:40;2.33;;;0.75;;
29006;SDS011;16104;48.642;9.008;2023-09-18T22:57:56;2.63;;;0.98;;
29006;SDS011;16104;48.642;9.008;2023-09-18T23:02:52;1.80;;;0.90;;
29006;SDS011;16104;48.642;9.008;2023-09-18T23:07:49;2.55;;;0.95;;
29006;SDS011;16104;48.642;9.008;2023-09-18T23:12:47;1.25;;;0.73;;
29006;SDS011;16104;48.642;9.008;2023-09-18T23:17:43;1.02;;;0.80;;
29006;SDS011;16104;48.642;9.008;2023-09-18T23:22:39;2.75;;;0.90;;
29006;SDS011;16104;48.642;9.008;2023-09-18T23:27:39;1.08;;;0.68;;
29006;SDS011;16104;48.642;9.008;2023-09-18T23:32:35;2.33;;;0.88;;
29006;SDS011;16104;48.642;9.008;2023-09-18T23:37:32;1.27;;;0.85;;
29006;SDS011;16104;48.642;9.008;2023-09-18T23:42:29;1.20;;;0.80;;
29006;SDS011;16104;48.642;9.008;2023-09-18T23:47:24;1.90;;;0.90;;
29006;SDS011;16104;48.642;9.008;2023-09-18T23:52:20;1.10;;;0.90;;
29006;SDS011;16104;48.642;9.008;2023-09-18T23:57:16;4.90;;;1.08;;
